Nord Copenhagen — 3FNV7 — position and weather

sailwx.info

Track history (hours):
 
Tides and Currents Weather Stations Pressure Air Temp Water Temp Dewpoint Dewpoint Depression Visibility Wind Speed Wind Dir Waves Ship Positions

Nord Copenhagen

Last reported at 2014-Dec-17 18:25 UTC. Time now 2014-Dec-21 11:22 UTC.
Position N 01°16' E 104°10'.

Length 177 m; draft 10.2 m.

Type: Cargo ship. MMSI: 373334000.

Date/timePositionNaut miles runAvg speedWind from/ knotsBaromVisibWave heightAir tempDewpointWater temp
2014-Dec-17 18:25N 01°16' E 104°10'8 9.3
2014-Dec-17 17:33N 01°15' E 104°02'7 7.1
2014-Dec-17 16:32N 01°16' E 103°55'1 0.9
2014-Dec-17 15:33N 01°16' E 103°54'0 0.0
2014-Dec-17 14:33N 01°16' E 103°54'0 0.0
2014-Dec-17 13:33N 01°16' E 103°54'0 0.0
2014-Dec-17 12:33N 01°16' E 103°54'0 0.0
2014-Dec-17 11:21N 01°16' E 103°54'0 0.0
2014-Dec-17 10:33N 01°16' E 103°54'0 0.0
2014-Dec-17 09:33N 01°16' E 103°54'0 0.1
2014-Dec-17 08:30N 01°16' E 103°54'0 0.1
2014-Dec-17 07:33N 01°16' E 103°54'1 0.6
2014-Dec-17 06:33N 01°16' E 103°54'6 4.7
2014-Dec-17 05:13N 01°11' E 103°50'3 4.7
2014-Dec-17 04:30N 01°09' E 103°47'4 4.5
2014-Dec-17 03:33N 01°06' E 103°44'  
Track history (hours):
 
Tides and Currents Weather Stations Pressure Air Temp Water Temp Dewpoint Dewpoint Depression Visibility Wind Speed Wind Dir Waves Ship Positions

Nord Copenhagen

Last reported at 2014-Dec-17 18:25 UTC. Time now 2014-Dec-21 11:22 UTC.
Position N 01°16' E 104°10'.

Length 177 m; draft 10.2 m.

Type: Cargo ship. MMSI: 373334000.

Date/timePositionNaut miles runAvg speedWind from/ knotsBaromVisibWave heightAir tempDewpointWater temp
2014-Dec-17 18:25N 01°16' E 104°10'8 9.3
2014-Dec-17 17:33N 01°15' E 104°02'7 7.1
2014-Dec-17 16:32N 01°16' E 103°55'1 0.9
2014-Dec-17 15:33N 01°16' E 103°54'0 0.0
2014-Dec-17 14:33N 01°16' E 103°54'0 0.0
2014-Dec-17 13:33N 01°16' E 103°54'0 0.0
2014-Dec-17 12:33N 01°16' E 103°54'0 0.0
2014-Dec-17 11:21N 01°16' E 103°54'0 0.0
2014-Dec-17 10:33N 01°16' E 103°54'0 0.0
2014-Dec-17 09:33N 01°16' E 103°54'0 0.1
2014-Dec-17 08:30N 01°16' E 103°54'0 0.1
2014-Dec-17 07:33N 01°16' E 103°54'1 0.6
2014-Dec-17 06:33N 01°16' E 103°54'6 4.7
2014-Dec-17 05:13N 01°11' E 103°50'3 4.7
2014-Dec-17 04:30N 01°09' E 103°47'4 4.5
2014-Dec-17 03:33N 01°06' E 103°44'  

Dump ship's entire track history